8分钟前
罗盘
风向 的 风向 的 风向 到 风向 240° Ameland Airport Ballum 8/26
风: 15 千吨, 4 beaufort
乌云 & 能见度
METAR EHKD 230232Z AUTO 24015KT 210V280 9999 FEW014 BKN017 BKN022 17/14 Q1018 WHT

METAR定义 | 嵌入

24小时趋势

航班类别VFRLIFR
温度20 °C15 °C
风速15 千吨0 千吨
风向260°000°
能见度10 公里+0 米
昆士兰州10281018

更多历史数据

下载我们的安卓应用程序

从你的主屏幕上轻松地访问你的航空天气。
只需一次付费,您就可以获得无广告的体验。

您会帮助我们保持Metar-Taf.com正常运行吗?
您的贡献有助于网站的进一步开发并支付费用。

没有更多广告

您是捐款5美元还是更多?然后,我们将永远不会再向您展示广告,这是我们永恒的感谢!
捐赠前先登录

METAR Ameland Airport Ballum

Ameland Airport Ballum是Ameland,荷兰中的小机场。 机场有{a,plural,=1{一条跑道} other{#跑道}}: 8/26 (860 米)

Ameland Airport Ballum最近未发布观察结果。相反,我们向您显示84 km的报告De Kooy Airfield。 该报告是针对2021年9月23日 04:32, 当地时间进行的。

机场观察

风来自西南西 (240°)方向,速度为15 千吨。 风向在南南西 (210°)和西 (280°)之间变化。

可见度为10 公里 或者更多。

有几云在1.400 ft的高度, 碎云在1.700 ft的高度 和 碎云在2.200 ft的高度。 破损或更高的上限为1.700 ft。

温度和风寒是17 °C。 露点为14 °C,相对湿度为83%。 海平面上的气压为1018 压力 (QNH)。

白天

今天,太阳从07:25升起,在19:33降落。 这适用于Ameland Airport Ballum,世界夏令时可能有所不同。 当地时间与世界标准时间之间的时差为+2 小时。 夏令时目前正在进行中。

您是否要在网站上Ameland Airport Ballum飞行的天气? 阅读更多   自由!